Time;durP1;ratioP1;P1;durP2;ratioP2;P2;SDS_P1;SDS_P2;PMS_P1;PMS_P2;Temp;Humidity;BMP_temperature;BMP_pressure;BME280_temperature;BME280_humidity;BME280_pressure;Samples;Min_cycle;Max_cycle;Signal;HPM_P1;HPM_P2
2022/09/13 00:01:55;;;;;;;38.75;26.73;;;17.70;99.90;;;;;;5054776;28;20037;-80
2022/09/13 00:04:21;;;;;;;36.28;26.92;;;17.70;99.90;;;;;;5072416;28;20055;-80
2022/09/13 00:06:47;;;;;;;48.70;29.08;;;17.70;99.90;;;;;;5054731;28;20055;-80
2022/09/13 00:09:12;;;;;;;50.72;30.77;;;17.70;99.90;;;;;;5038159;28;20055;-81
2022/09/13 00:11:38;;;;;;;42.67;28.58;;;17.70;99.90;;;;;;5054553;28;20125;-79
2022/09/13 00:14:04;;;;;;;45.58;29.08;;;17.70;99.90;;;;;;5054826;28;20047;-80
2022/09/13 00:16:30;;;;;;;90.75;38.53;;;17.70;99.90;;;;;;5053954;28;20063;-80
2022/09/13 00:18:56;;;;;;;71.47;37.40;;;17.70;99.90;;;;;;5072329;28;20083;-81
2022/09/13 00:21:22;;;;;;;38.80;26.48;;;17.70;99.90;;;;;;5054467;28;20438;-80
2022/09/13 00:23:50;;;;;;;50.33;30.23;;;17.70;99.90;;;;;;5054762;28;20056;-80
2022/09/13 00:26:19;;;;;;;49.10;28.95;;;17.70;99.90;;;;;;5072108;28;20048;-80
2022/09/13 00:28:50;;;;;;;76.93;35.08;;;17.70;99.90;;;;;;5072324;28;20131;-81
2022/09/13 00:31:17;;;;;;;37.55;25.73;;;17.60;99.90;;;;;;5073269;28;20106;-80
2022/09/13 00:33:42;;;;;;;84.72;37.97;;;17.70;99.90;;;;;;5075805;28;20055;-80
2022/09/13 00:36:10;;;;;;;53.05;31.38;;;17.70;99.90;;;;;;5058023;28;20076;-82
2022/09/13 00:38:39;;;;;;;50.13;27.83;;;17.60;99.90;;;;;;5075877;28;20526;-80
2022/09/13 00:41:09;;;;;;;65.40;34.85;;;17.60;99.90;;;;;;5058749;28;20378;-79
2022/09/13 00:43:44;;;;;;;149.75;45.70;;;17.70;99.90;;;;;;5058452;28;20054;-81
2022/09/13 00:46:16;;;;;;;32.20;23.50;;;17.60;99.90;;;;;;5058359;28;20460;-80
2022/09/13 00:48:43;;;;;;;46.95;29.67;;;17.60;99.90;;;;;;5058189;28;20404;-80
2022/09/13 00:51:10;;;;;;;41.22;27.65;;;17.60;99.90;;;;;;5075902;28;20048;-80
2022/09/13 00:53:39;;;;;;;43.92;27.52;;;17.60;99.90;;;;;;5091797;28;20044;-79
2022/09/13 00:56:20;;;;;;;44.83;27.73;;;17.60;99.90;;;;;;5058129;28;20052;-80
2022/09/13 00:58:58;;;;;;;40.47;27.17;;;17.60;99.90;;;;;;5058249;28;20045;-79
2022/09/13 01:01:33;;;;;;;37.20;24.80;;;17.60;99.90;;;;;;5058280;28;20040;-81
2022/09/13 01:04:00;;;;;;;55.13;30.15;;;17.60;99.90;;;;;;5058265;28;20119;-80
2022/09/13 01:06:31;;;;;;;54.65;30.13;;;17.60;99.90;;;;;;5075777;28;20037;-80
2022/09/13 01:09:03;;;;;;;39.47;25.38;;;17.60;99.90;;;;;;5075607;28;20132;-81
2022/09/13 01:11:59;;;;;;;110.53;40.35;;;17.60;99.90;;;;;;5058084;28;20467;-80
2022/09/13 01:14:26;;;;;;;39.72;26.05;;;17.60;99.90;;;;;;5057805;28;20075;-80
2022/09/13 01:16:53;;;;;;;87.35;37.83;;;17.60;99.90;;;;;;5058019;28;20350;-81
2022/09/13 01:19:19;;;;;;;52.65;31.77;;;17.60;99.90;;;;;;5057970;28;20045;-79
2022/09/13 01:22:17;;;;;;;37.03;24.48;;;17.60;99.90;;;;;;5041086;28;20040;-81
2022/09/13 01:25:01;;;;;;;115.22;42.20;;;17.60;99.90;;;;;;5075351;28;20044;-79
2022/09/13 01:27:30;;;;;;;32.15;24.15;;;17.60;99.90;;;;;;5057635;28;20114;-81
2022/09/13 01:30:04;;;;;;;39.55;25.25;;;17.60;99.90;;;;;;5057729;28;20117;-80
2022/09/13 01:33:07;;;;;;;40.33;25.50;;;17.60;99.90;;;;;;5074874;28;20036;-81
2022/09/13 01:35:50;;;;;;;48.20;28.13;;;17.60;99.90;;;;;;5075057;28;20044;-79
2022/09/13 01:38:31;;;;;;;56.53;30.70;;;17.60;99.90;;;;;;5057377;28;20366;-81
2022/09/13 01:41:15;;;;;;;33.22;23.63;;;17.60;99.90;;;;;;5074995;28;20131;-80
2022/09/13 01:44:26;;;;;;;44.22;27.20;;;17.60;99.90;;;;;;5057416;28;20040;-81
2022/09/13 01:47:13;;;;;;;31.83;23.08;;;17.60;99.90;;;;;;5057545;28;20036;-80
2022/09/13 01:49:57;;;;;;;31.20;22.73;;;17.60;99.90;;;;;;5074667;28;20055;-81
2022/09/13 01:52:40;;;;;;;53.63;28.30;;;17.60;99.90;;;;;;5074943;28;20059;-81
2022/09/13 01:55:28;;;;;;;40.50;24.85;;;17.60;99.90;;;;;;5057150;28;20055;-79
2022/09/13 01:58:09;;;;;;;44.25;25.42;;;17.60;99.90;;;;;;5043154;28;20476;-81
2022/09/13 02:00:53;;;;;;;28.83;20.48;;;17.60;99.90;;;;;;5074801;28;20139;-80
2022/09/13 02:03:45;;;;;;;27.73;19.83;;;17.60;99.90;;;;;;5090673;28;20114;-81
2022/09/13 02:06:17;;;;;;;27.65;18.67;;;17.60;99.90;;;;;;5057038;28;20048;-80
2022/09/13 02:08:54;;;;;;;34.25;21.58;;;17.60;99.90;;;;;;5074635;28;20059;-80
2022/09/13 02:11:21;;;;;;;27.65;18.35;;;17.60;99.90;;;;;;5056908;28;20127;-81
2022/09/13 02:14:11;;;;;;;27.38;19.30;;;17.60;99.90;;;;;;5056745;28;20098;-82
2022/09/13 02:16:41;;;;;;;21.40;16.23;;;17.60;99.90;;;;;;5056588;28;20044;-80
2022/09/13 02:19:35;;;;;;;23.48;16.45;;;17.60;99.90;;;;;;5056531;28;20041;-80
2022/09/13 02:22:05;;;;;;;24.13;15.43;;;17.60;99.90;;;;;;5089566;28;20048;-80
2022/09/13 02:24:44;;;;;;;18.80;13.88;;;17.60;99.90;;;;;;5074212;28;20105;-79
2022/09/13 02:27:15;;;;;;;24.80;15.95;;;17.60;99.90;;;;;;5074031;28;20480;-80
2022/09/13 02:29:44;;;;;;;22.45;14.90;;;17.60;99.90;;;;;;5056585;28;20044;-80
2022/09/13 02:32:39;;;;;;;18.47;12.50;;;17.60;99.90;;;;;;5074129;28;20477;-79
2022/09/13 02:35:29;;;;;;;16.88;14.00;;;17.60;99.90;;;;;;5073797;28;20118;-81
2022/09/13 02:38:01;;;;;;;19.80;11.98;;;17.60;99.90;;;;;;5063583;28;20113;-80
2022/09/13 02:40:36;;;;;;;16.02;11.70;;;17.60;99.90;;;;;;5073999;28;20331;-80
2022/09/13 02:43:24;;;;;;;16.50;12.75;;;17.60;99.90;;;;;;5073741;28;20040;-79
2022/09/13 02:45:59;;;;;;;14.35;12.27;;;17.60;99.90;;;;;;5072934;28;20048;-80
2022/09/13 02:48:35;;;;;;;17.20;13.50;;;17.60;99.90;;;;;;5073299;28;20461;-79
2022/09/13 02:51:01;;;;;;;21.65;14.43;;;17.60;99.90;;;;;;5073710;28;20049;-79
2022/09/13 02:53:42;;;;;;;26.00;14.85;;;17.60;99.90;;;;;;5055606;28;20040;-80
2022/09/13 02:56:30;;;;;;;17.63;11.02;;;17.60;99.90;;;;;;5055795;28;20056;-81
2022/09/13 02:58:59;;;;;;;17.42;11.60;;;17.60;99.90;;;;;;5073561;28;20098;-80
2022/09/13 03:01:25;;;;;;;17.30;12.00;;;17.60;99.90;;;;;;5073537;28;20047;-80
2022/09/13 03:03:55;;;;;;;16.38;11.88;;;17.60;99.90;;;;;;5056047;28;20116;-79
2022/09/13 03:06:23;;;;;;;16.95;11.30;;;17.60;99.90;;;;;;5073498;28;20037;-81
2022/09/13 03:08:49;;;;;;;18.60;11.32;;;17.60;99.90;;;;;;5055518;28;20052;-80
2022/09/13 03:11:34;;;;;;;14.80;10.27;;;17.60;99.90;;;;;;5073110;28;20114;-80
2022/09/13 03:14:17;;;;;;;17.30;9.75;;;17.60;99.90;;;;;;5055652;28;20108;-79
2022/09/13 03:16:58;;;;;;;21.35;12.35;;;17.70;99.90;;;;;;5055362;28;20472;-80
2022/09/13 03:19:48;;;;;;;17.23;11.15;;;17.70;99.90;;;;;;5055573;28;20084;-81
2022/09/13 03:22:38;;;;;;;22.10;11.60;;;17.70;99.90;;;;;;5055573;28;20048;-81
2022/09/13 03:25:41;;;;;;;11.48;8.57;;;17.70;99.90;;;;;;5072855;28;20052;-80
2022/09/13 03:28:23;;;;;;;11.80;8.43;;;17.70;99.90;;;;;;5055391;28;20044;-80
2022/09/13 03:30:55;;;;;;;34.22;14.43;;;17.70;99.90;;;;;;5072641;28;20036;-80
2022/09/13 03:33:47;;;;;;;12.55;8.38;;;17.70;99.90;;;;;;5038855;28;20105;-81
2022/09/13 03:36:23;;;;;;;9.57;7.43;;;17.70;99.90;;;;;;5088606;28;20127;-80
2022/09/13 03:39:10;;;;;;;12.43;8.68;;;17.70;99.90;;;;;;5072914;28;20086;-80
2022/09/13 03:41:42;;;;;;;13.77;9.25;;;17.70;99.90;;;;;;5055339;28;20044;-78
2022/09/13 03:44:12;;;;;;;11.25;6.85;;;17.70;99.90;;;;;;5072700;28;20102;-80
2022/09/13 03:46:46;;;;;;;19.17;11.00;;;17.80;99.90;;;;;;5072728;28;20769;-81
2022/09/13 03:49:17;;;;;;;23.30;11.70;;;17.80;99.90;;;;;;5072277;28;20129;-80
2022/09/13 03:51:47;;;;;;;13.25;9.13;;;17.80;99.90;;;;;;5072734;28;20362;-81
2022/09/13 03:54:18;;;;;;;;;;;17.80;99.90;;;;;;5072840;28;20335;-80
2022/09/13 03:57:13;;;;;;;11.00;6.72;;;17.90;99.90;;;;;;5072589;28;20011;-79
2022/09/13 03:59:45;;;;;;;6.75;4.07;;;17.90;99.90;;;;;;5072593;28;20045;-80
2022/09/13 04:02:11;;;;;;;6.63;4.53;;;17.80;99.90;;;;;;5055051;28;20436;-79
2022/09/13 04:04:42;;;;;;;4.57;2.97;;;17.80;99.90;;;;;;5054959;28;20129;-80
2022/09/13 04:07:09;;;;;;;5.47;3.03;;;17.70;99.90;;;;;;5054101;28;20048;-80
2022/09/13 04:09:35;;;;;;;8.70;2.97;;;17.70;99.90;;;;;;5055047;28;20420;-80
2022/09/13 04:12:01;;;;;;;7.82;3.95;;;17.60;99.90;;;;;;5088439;28;20032;-80
2022/09/13 04:14:27;;;;;;;6.45;2.58;;;17.60;99.90;;;;;;5054765;28;20036;-80
2022/09/13 04:16:55;;;;;;;7.32;3.30;;;17.50;99.90;;;;;;5087983;28;20098;-79
2022/09/13 04:19:21;;;;;;;5.85;2.55;;;17.50;99.90;;;;;;5088138;28;20033;-80
2022/09/13 04:21:49;;;;;;;5.03;2.30;;;17.40;99.90;;;;;;5088300;28;20041;-81
2022/09/13 04:24:15;;;;;;;11.70;3.13;;;17.40;99.90;;;;;;5089078;28;20127;-80
2022/09/13 04:26:41;;;;;;;8.38;3.80;;;17.40;99.90;;;;;;5072391;28;20048;-80
2022/09/13 04:29:07;;;;;;;7.15;3.65;;;17.30;99.90;;;;;;5072236;28;20396;-80
2022/09/13 04:31:33;;;;;;;8.30;3.83;;;17.30;99.90;;;;;;5054686;28;20411;-79
2022/09/13 04:33:58;;;;;;;6.90;3.40;;;17.30;99.90;;;;;;5087991;28;20036;-81
2022/09/13 04:36:25;;;;;;;6.25;3.00;;;17.30;99.90;;;;;;5072002;28;20119;-80
2022/09/13 04:38:51;;;;;;;6.25;3.10;;;17.20;99.90;;;;;;5054748;28;20083;-80
2022/09/13 04:41:16;;;;;;;5.43;3.40;;;17.20;99.90;;;;;;5088241;28;20076;-80
2022/09/13 04:43:42;;;;;;;6.80;2.70;;;17.20;99.90;;;;;;5088043;28;20056;-81
2022/09/13 04:46:08;;;;;;;4.32;2.42;;;17.20;99.90;;;;;;5054522;28;20075;-82
2022/09/13 04:48:34;;;;;;;12.13;3.00;;;17.20;99.90;;;;;;5070903;28;20084;-79
2022/09/13 04:51:04;;;;;;;6.30;2.13;;;17.20;99.90;;;;;;5054470;28;20116;-79
2022/09/13 04:53:30;;;;;;;4.75;1.95;;;17.20;99.90;;;;;;5055416;28;20039;-80
2022/09/13 04:56:04;;;;;;;7.30;2.15;;;17.20;99.90;;;;;;5037584;28;20052;-81
2022/09/13 04:58:30;;;;;;;6.22;2.38;;;17.20;99.90;;;;;;5072043;28;20036;-80
2022/09/13 05:01:04;;;;;;;8.20;2.80;;;17.20;99.90;;;;;;5071846;28;20036;-81
2022/09/13 05:03:31;;;;;;;6.28;2.13;;;17.20;99.90;;;;;;5087945;28;20039;-80
2022/09/13 05:06:16;;;;;;;9.88;2.40;;;17.20;99.90;;;;;;5087930;28;20149;-80
2022/09/13 05:08:43;;;;;;;10.80;3.67;;;17.20;99.90;;;;;;5087443;28;20135;-80
2022/09/13 05:11:09;;;;;;;8.50;2.92;;;17.20;99.90;;;;;;5087945;28;20505;-81
2022/09/13 05:13:35;;;;;;;8.35;3.83;;;17.20;99.90;;;;;;5054295;28;20124;-81
2022/09/13 05:16:06;;;;;;;9.75;4.03;;;17.20;99.90;;;;;;5071839;28;20123;-80
2022/09/13 05:18:33;;;;;;;9.15;4.75;;;17.20;99.90;;;;;;5074715;28;20471;-79
2022/09/13 05:21:02;;;;;;;10.95;4.38;;;17.20;99.90;;;;;;5091460;28;20044;-80
2022/09/13 05:23:29;;;;;;;9.20;4.25;;;17.20;99.90;;;;;;5091286;28;20135;-80
2022/09/13 05:26:00;;;;;;;8.05;3.92;;;17.20;99.90;;;;;;5091321;28;20460;-81
2022/09/13 05:28:31;;;;;;;13.07;5.07;;;17.20;99.90;;;;;;5091318;28;20040;-79
2022/09/13 05:30:58;;;;;;;10.98;4.97;;;17.20;99.90;;;;;;5091192;28;20139;-79
2022/09/13 05:33:26;;;;;;;8.57;3.50;;;17.20;99.90;;;;;;5091172;28;20123;-80
2022/09/13 05:35:52;;;;;;;8.10;4.00;;;17.30;99.90;;;;;;5090862;28;20462;-80
2022/09/13 05:38:18;;;;;;;9.63;3.90;;;17.30;99.90;;;;;;5074701;28;20079;-79
2022/09/13 05:40:44;;;;;;;7.75;3.92;;;17.30;99.90;;;;;;5057574;28;20052;-81
2022/09/13 05:43:10;;;;;;;8.38;3.95;;;17.30;99.90;;;;;;5074056;28;20045;-80
2022/09/13 05:45:36;;;;;;;8.38;3.80;;;17.30;99.90;;;;;;5057496;28;20053;-81
2022/09/13 05:48:02;;;;;;;6.30;3.58;;;17.30;99.90;;;;;;5090708;28;20137;-78
2022/09/13 05:50:28;;;;;;;7.60;3.38;;;17.30;99.90;;;;;;5074910;28;20055;-79
2022/09/13 05:52:54;;;;;;;5.35;3.75;;;17.30;99.90;;;;;;5073993;28;20044;-79
2022/09/13 05:55:21;;;;;;;7.30;3.83;;;17.30;99.90;;;;;;5090699;28;20040;-79
2022/09/13 05:57:48;;;;;;;11.00;4.82;;;17.30;99.90;;;;;;5074704;28;20033;-80
2022/09/13 06:00:14;;;;;;;7.43;3.65;;;17.30;99.90;;;;;;5074413;28;20119;-80
2022/09/13 06:02:40;;;;;;;5.30;3.22;;;17.30;99.90;;;;;;5074666;28;20048;-80
2022/09/13 06:05:10;;;;;;;6.93;3.40;;;17.30;99.90;;;;;;5073742;28;20036;-81
2022/09/13 06:07:38;;;;;;;;;;;17.30;99.90;;;;;;5075073;28;20040;-82
2022/09/13 06:10:04;;;;;;;6.80;3.83;;;17.30;99.90;;;;;;5057166;28;19916;-80
2022/09/13 06:12:30;;;;;;;12.35;4.13;;;17.30;99.90;;;;;;5074212;28;20090;-80
2022/09/13 06:14:56;;;;;;;6.43;3.90;;;17.30;99.90;;;;;;5056886;28;20088;-80
2022/09/13 06:17:22;;;;;;;6.15;3.50;;;17.30;99.90;;;;;;5074523;28;20199;-80
2022/09/13 06:19:47;;;;;;;5.82;3.20;;;17.40;99.90;;;;;;5056821;28;20052;-81
2022/09/13 06:22:13;;;;;;;6.47;3.35;;;17.40;99.90;;;;;;5090362;28;20123;-80
2022/09/13 06:24:39;;;;;;;7.32;3.25;;;17.30;99.90;;;;;;5081620;28;20112;-80
2022/09/13 06:27:05;;;;;;;8.20;3.88;;;17.30;99.90;;;;;;5073853;28;20051;-81
2022/09/13 06:29:30;;;;;;;7.07;3.08;;;17.40;99.90;;;;;;5055922;28;20048;-81
2022/09/13 06:31:56;;;;;;;6.97;2.80;;;17.40;99.90;;;;;;5090264;28;20174;-81
2022/09/13 06:34:22;;;;;;;5.75;2.40;;;17.40;99.90;;;;;;5056183;28;20344;-80
2022/09/13 06:36:48;;;;;;;6.80;2.30;;;17.40;99.90;;;;;;5073923;28;20093;-80
2022/09/13 06:39:14;;;;;;;4.38;2.05;;;17.40;99.90;;;;;;5090059;28;20040;-80
2022/09/13 06:41:40;;;;;;;5.10;2.00;;;17.40;99.90;;;;;;5073912;28;20116;-81
2022/09/13 06:44:06;;;;;;;9.38;1.90;;;17.40;99.90;;;;;;5050894;28;20487;-82
2022/09/13 06:46:33;;;;;;;7.97;2.45;;;17.30;99.90;;;;;;5090016;28;20036;-80
2022/09/13 06:49:01;;;;;;;5.63;2.95;;;17.40;99.90;;;;;;5073474;28;20059;-81
2022/09/13 06:51:28;;;;;;;10.07;2.45;;;17.40;99.90;;;;;;5073772;28;20357;-81
2022/09/13 06:53:55;;;;;;;5.57;1.98;;;17.40;99.90;;;;;;5089774;28;20507;-82
2022/09/13 06:56:22;;;;;;;7.88;2.72;;;17.50;99.90;;;;;;5073589;28;20132;-81
2022/09/13 06:58:50;;;;;;;6.15;2.63;;;17.50;99.90;;;;;;5073678;28;20493;-80
2022/09/13 07:01:31;;;;;;;6.28;2.17;;;17.60;99.90;;;;;;5056069;28;20036;-81
2022/09/13 07:04:05;;;;;;;5.30;1.83;;;17.60;99.90;;;;;;5089584;28;20040;-80
2022/09/13 07:06:40;;;;;;;6.28;2.30;;;17.70;99.90;;;;;;5056093;28;20094;-81
2022/09/13 07:09:09;;;;;;;5.10;1.88;;;17.70;99.90;;;;;;5055838;28;20490;-81
2022/09/13 07:11:37;;;;;;;8.30;2.63;;;17.70;99.90;;;;;;5055954;28;20052;-81
2022/09/13 07:14:05;;;;;;;5.40;2.05;;;17.80;99.90;;;;;;5074252;28;20040;-81
2022/09/13 07:16:34;;;;;;;6.22;2.17;;;17.80;99.90;;;;;;5089069;28;20048;-80
2022/09/13 07:19:05;;;;;;;5.87;1.97;;;17.90;99.90;;;;;;5066092;28;20051;-81
2022/09/13 07:21:33;;;;;;;3.90;2.10;;;18.00;99.90;;;;;;5089165;28;20048;-80
2022/09/13 07:23:58;;;;;;;7.78;2.22;;;18.00;99.90;;;;;;5072167;28;20768;-81
2022/09/13 07:26:27;;;;;;;9.80;2.50;;;18.10;99.90;;;;;;5089126;28;20041;-81
2022/09/13 07:28:55;;;;;;;6.80;1.98;;;18.20;99.90;;;;;;5073002;28;20052;-81
2022/09/13 07:31:29;;;;;;;5.20;1.92;;;18.30;99.90;;;;;;5055523;28;20105;-81
2022/09/13 07:33:58;;;;;;;6.55;1.58;;;18.30;99.90;;;;;;5088876;28;20074;-81
2022/09/13 07:36:25;;;;;;;8.05;1.67;;;18.40;99.90;;;;;;5055289;28;20041;-81
2022/09/13 07:38:51;;;;;;;6.18;1.50;;;18.50;99.90;;;;;;5072888;28;20054;-81
2022/09/13 07:41:20;;;;;;;4.65;1.42;;;18.60;99.90;;;;;;5088921;28;20044;-82
2022/09/13 07:43:46;;;;;;;6.50;1.20;;;18.60;99.90;;;;;;5088879;28;20040;-82
2022/09/13 07:46:14;;;;;;;4.85;1.10;;;18.70;99.90;;;;;;5088619;28;20051;-81
2022/09/13 07:48:42;;;;;;;7.10;2.05;;;18.70;99.90;;;;;;5072419;28;20052;-81
2022/09/13 07:51:17;;;;;;;6.00;1.55;;;18.70;99.90;;;;;;5071767;28;20369;-81
2022/09/13 07:53:44;;;;;;;4.70;1.38;;;18.70;99.90;;;;;;5072604;28;20055;-81
2022/09/13 07:56:13;;;;;;;6.90;1.73;;;18.80;99.90;;;;;;5072385;28;20102;-81
2022/09/13 07:58:39;;;;;;;4.45;1.67;;;18.80;99.90;;;;;;5054981;28;20048;-81
2022/09/13 08:01:16;;;;;;;5.05;1.30;;;18.90;99.90;;;;;;5054872;28;20055;-81
2022/09/13 08:03:43;;;;;;;5.50;1.45;;;19.00;99.90;;;;;;5055140;28;20056;-82
2022/09/13 08:06:09;;;;;;;5.57;1.08;;;19.20;99.90;;;;;;5088238;28;20598;-81
2022/09/13 08:08:36;;;;;;;7.22;2.30;;;19.20;99.90;;;;;;5055116;28;20045;-82
2022/09/13 08:11:04;;;;;;;5.05;1.10;;;19.20;99.90;;;;;;5088336;28;20281;-83
2022/09/13 08:13:33;;;;;;;5.13;1.40;;;19.20;99.90;;;;;;5071693;28;20078;-81
2022/09/13 08:16:05;;;;;;;5.50;0.90;;;19.30;99.90;;;;;;5054816;28;20051;-81
2022/09/13 08:18:32;;;;;;;2.58;0.77;;;19.50;99.90;;;;;;5054494;28;20182;-83
2022/09/13 08:20:59;;;;;;;2.53;0.90;;;19.70;99.90;;;;;;5071296;28;20058;-81
2022/09/13 08:23:26;;;;;;;4.05;0.70;;;19.90;99.90;;;;;;5088039;28;20210;-81
2022/09/13 08:25:52;;;;;;;3.80;0.95;;;20.10;99.90;;;;;;5087685;28;20044;-81
2022/09/13 08:28:20;;;;;;;4.35;0.80;;;20.40;99.90;;;;;;5071843;28;20041;-81
2022/09/13 08:30:47;;;;;;;3.85;1.13;;;20.60;99.90;;;;;;5072219;28;20354;-81
2022/09/13 08:33:14;;;;;;;2.30;0.60;;;20.60;99.90;;;;;;5054423;28;20618;-82
2022/09/13 08:35:40;;;;;;;2.45;0.50;;;20.90;99.90;;;;;;5071825;28;20118;-82
2022/09/13 08:38:07;;;;;;;3.95;1.20;;;21.50;99.90;;;;;;5054349;28;20102;-82
2022/09/13 08:40:43;;;;;;;;;;;22.20;99.90;;;;;;5073629;28;20119;-80
2022/09/13 08:43:57;;;;;;;2.05;0.50;;;22.50;99.90;;;;;;5071203;28;19917;-83
2022/09/13 08:46:39;;;;;;;3.67;0.70;;;21.80;99.90;;;;;;5029500;28;20075;-83
2022/09/13 08:49:12;;;;;;;3.45;0.60;;;21.00;99.90;;;;;;5051855;28;20175;-81
2022/09/13 08:52:02;;;;;;;2.72;0.75;;;21.10;99.90;;;;;;5069237;28;20385;-82
2022/09/13 08:54:28;;;;;;;5.32;0.95;;;21.70;99.90;;;;;;5075564;28;20419;-84
2022/09/13 08:57:07;;;;;;;4.57;0.75;;;22.10;99.90;;;;;;5075397;28;20080;-82
2022/09/13 08:59:51;;;;;;;1.70;0.40;;;22.60;99.90;;;;;;5075793;28;20365;-80
2022/09/13 09:02:39;;;;;;;3.40;0.60;;;23.10;99.90;;;;;;5057761;28;20044;-82
2022/09/13 09:05:25;;;;;;;4.32;0.77;;;23.60;99.90;;;;;;5075201;28;20067;-84
2022/09/13 09:07:53;;;;;;;3.80;0.65;;;24.10;99.90;;;;;;5057798;28;20040;-82
2022/09/13 09:10:23;;;;;;;4.03;0.60;;;24.40;99.90;;;;;;5040942;28;20328;-82
2022/09/13 09:12:57;;;;;;;4.32;0.60;;;24.30;99.90;;;;;;5074998;28;20452;-83
2022/09/13 09:15:55;;;;;;;3.97;0.70;;;23.70;99.90;;;;;;5040734;28;20040;-83
2022/09/13 09:18:26;;;;;;;4.60;0.57;;;22.60;99.90;;;;;;5039764;28;20438;-82
2022/09/13 09:20:56;;;;;;;5.50;0.70;;;22.10;99.90;;;;;;5057295;28;20473;-82
2022/09/13 09:23:39;;;;;;;3.17;0.77;;;22.40;99.90;;;;;;5074824;28;20335;-83
2022/09/13 09:26:18;;;;;;;2.67;0.82;;;22.80;99.90;;;;;;5074723;28;20620;-83
2022/09/13 09:29:00;;;;;;;2.70;0.70;;;23.30;99.90;;;;;;5057710;28;20059;-81
2022/09/13 09:32:08;;;;;;;4.35;0.85;;;23.60;99.90;;;;;;5057503;28;20044;-82
2022/09/13 09:34:50;;;;;;;7.05;0.77;;;23.90;99.90;;;;;;5037011;28;20370;-82
2022/09/13 09:37:19;;;;;;;3.88;0.88;;;24.30;99.90;;;;;;5056822;28;20480;-83
2022/09/13 09:39:50;;;;;;;2.63;0.70;;;24.60;99.90;;;;;;5074924;28;20048;-82
2022/09/13 09:42:23;;;;;;;3.63;0.68;;;24.80;99.90;;;;;;5057350;28;20052;-80
2022/09/13 09:45:05;;;;;;;2.40;0.77;;;24.50;99.90;;;;;;5057181;28;20036;-80
2022/09/13 09:47:50;;;;;;;3.63;0.63;;;23.70;99.90;;;;;;5074860;28;20124;-79
2022/09/13 09:50:27;;;;;;;4.53;0.60;;;23.60;99.90;;;;;;5056563;28;20354;-80
2022/09/13 09:53:13;;;;;;;2.47;0.95;;;23.90;99.90;;;;;;5057167;28;20121;-81
2022/09/13 09:56:01;;;;;;;1.90;0.60;;;24.40;99.90;;;;;;5056834;28;20052;-80
2022/09/13 09:58:39;;;;;;;2.65;0.60;;;24.80;99.90;;;;;;5074703;28;20044;-82
2022/09/13 10:01:16;;;;;;;3.40;0.80;;;25.10;99.90;;;;;;5056032;28;20347;-81
2022/09/13 10:04:12;;;;;;;4.65;0.80;;;25.40;99.90;;;;;;5055566;28;20467;-79
2022/09/13 10:06:40;;;;;;;3.50;0.50;;;25.40;98.70;;;;;;5046283;28;20056;-80
2022/09/13 10:09:16;;;;;;;2.40;0.60;;;24.90;97.90;;;;;;5053183;28;20109;-80
2022/09/13 10:11:47;;;;;;;4.10;0.38;;;24.80;98.50;;;;;;5056765;28;20045;-80
2022/09/13 10:14:42;;;;;;;3.47;0.88;;;24.80;97.80;;;;;;5090221;28;20044;-81
2022/09/13 10:17:17;;;;;;;2.00;0.55;;;24.90;98.10;;;;;;5071616;28;20047;-80
2022/09/13 10:20:00;;;;;;;3.78;0.80;;;25.20;97.00;;;;;;5073625;28;20079;-80
2022/09/13 10:22:32;;;;;;;1.52;0.60;;;25.30;95.80;;;;;;5056239;28;20040;-82
2022/09/13 10:25:26;;;;;;;2.67;0.73;;;25.40;95.10;;;;;;5056713;28;20054;-79
2022/09/13 10:27:55;;;;;;;2.00;0.50;;;25.60;96.30;;;;;;5039957;28;20101;-81
2022/09/13 10:30:31;;;;;;;4.95;1.00;;;25.70;95.10;;;;;;5074089;28;20044;-81
2022/09/13 10:32:58;;;;;;;3.67;0.75;;;25.90;94.90;;;;;;5073769;28;20109;-80
2022/09/13 10:35:26;;;;;;;6.65;0.85;;;26.30;94.70;;;;;;5056327;28;20131;-79
2022/09/13 10:37:52;;;;;;;2.03;0.65;;;26.30;93.00;;;;;;5089873;28;20215;-79
2022/09/13 10:40:38;;;;;;;5.38;0.80;;;26.00;92.80;;;;;;5073828;28;20123;-80
2022/09/13 10:43:14;;;;;;;3.30;0.70;;;25.10;92.40;;;;;;5072833;28;20045;-80
2022/09/13 10:45:41;;;;;;;4.68;0.60;;;24.10;93.80;;;;;;5056212;28;20051;-80
2022/09/13 10:48:12;;;;;;;2.88;1.00;;;24.00;95.50;;;;;;5055958;28;20051;-80
2022/09/13 10:50:38;;;;;;;3.45;1.02;;;24.30;94.80;;;;;;5056155;28;20109;-80
2022/09/13 10:53:51;;;;;;;3.65;0.82;;;24.40;94.80;;;;;;5039051;28;20072;-81
2022/09/13 10:56:26;;;;;;;6.65;0.68;;;24.20;95.00;;;;;;5036452;28;20136;-82
2022/09/13 10:59:28;;;;;;;3.22;0.95;;;23.50;95.20;;;;;;5055986;28;20048;-82
2022/09/13 11:02:24;;;;;;;3.42;0.82;;;22.80;96.20;;;;;;5055698;28;20047;-82
2022/09/13 11:05:41;;;;;;;2.58;0.63;;;22.50;97.80;;;;;;5055891;28;20372;-82
2022/09/13 11:08:43;;;;;;;4.32;0.70;;;22.80;98.10;;;;;;5028204;28;20057;-79
2022/09/13 11:11:32;;;;;;;5.35;0.95;;;23.10;97.10;;;;;;5012542;28;20048;-81
2022/09/13 11:14:24;;;;;;;3.38;0.73;;;23.30;97.00;;;;;;5055516;28;20036;-84
2022/09/13 11:17:25;;;;;;;3.53;0.57;;;23.70;97.30;;;;;;5072061;28;20040;-83
2022/09/13 11:20:18;;;;;;;3.65;0.98;;;23.70;96.20;;;;;;5073036;28;20063;-78
2022/09/13 11:23:02;;;;;;;3.25;0.80;;;23.30;95.20;;;;;;5045655;28;20055;-80
2022/09/13 11:25:36;;;;;;;2.92;0.60;;;23.00;96.00;;;;;;5075189;28;20075;-80
2022/09/13 11:28:25;;;;;;;2.92;0.75;;;22.90;95.90;;;;;;5075382;28;20043;-78
2022/09/13 11:31:24;;;;;;;4.75;0.88;;;22.90;95.60;;;;;;5073230;28;20052;-77
2022/09/13 11:34:07;;;;;;;;;;;23.00;96.10;;;;;;5075070;28;20059;-78
2022/09/13 11:36:48;;;;;;;4.60;0.80;;;23.10;96.20;;;;;;5075016;28;19915;-79
2022/09/13 11:39:45;;;;;;;5.50;0.88;;;23.20;95.40;;;;;;5091934;28;20048;-78
2022/09/13 11:42:17;;;;;;;2.58;0.50;;;23.50;95.00;;;;;;5047945;28;20036;-80
2022/09/13 11:45:02;;;;;;;4.55;0.90;;;23.80;95.00;;;;;;5072665;28;20422;-80
2022/09/13 11:47:38;;;;;;;2.97;0.47;;;24.00;92.60;;;;;;5072317;28;20109;-79
2022/09/13 11:50:26;;;;;;;4.22;1.20;;;23.70;93.50;;;;;;5064270;28;20045;-80
2022/09/13 11:53:19;;;;;;;3.65;0.85;;;23.70;94.60;;;;;;5054835;28;20048;-79
2022/09/13 11:55:54;;;;;;;5.10;1.13;;;23.60;93.50;;;;;;5054628;28;20454;-80
2022/09/13 11:58:32;;;;;;;2.55;0.70;;;23.60;93.60;;;;;;5072249;28;20540;-79
2022/09/13 12:01:07;;;;;;;3.13;0.70;;;23.50;92.80;;;;;;5053296;28;20097;-79
2022/09/13 12:04:02;;;;;;;3.30;0.95;;;23.40;91.00;;;;;;5074363;28;20047;-79
2022/09/13 12:06:38;;;;;;;4.45;1.00;;;23.00;92.60;;;;;;5074618;28;20042;-80
2022/09/13 12:09:12;;;;;;;3.03;1.00;;;22.90;93.10;;;;;;5074874;28;20111;-80
2022/09/13 12:11:44;;;;;;;2.97;0.55;;;22.80;93.10;;;;;;5054489;28;20047;-80
2022/09/13 12:14:16;;;;;;;3.92;0.70;;;22.70;94.50;;;;;;5054406;28;20408;-79
2022/09/13 12:16:47;;;;;;;5.97;1.70;;;22.70;94.10;;;;;;5087605;28;20074;-80
2022/09/13 12:19:25;;;;;;;5.00;1.45;;;22.70;94.60;;;;;;5054698;28;20075;-79
2022/09/13 12:21:55;;;;;;;3.30;0.70;;;22.70;95.10;;;;;;5054171;28;20117;-78
2022/09/13 12:24:47;;;;;;;3.40;0.50;;;22.80;94.30;;;;;;5038138;28;20089;-80
2022/09/13 12:27:24;;;;;;;3.42;0.70;;;22.70;93.90;;;;;;5055775;28;20067;-81
2022/09/13 12:29:56;;;;;;;2.63;0.60;;;22.60;94.40;;;;;;5042124;28;20040;-83
2022/09/13 12:32:22;;;;;;;5.38;0.65;;;22.70;93.70;;;;;;5058660;28;20394;-81
2022/09/13 12:35:17;;;;;;;2.85;0.50;;;22.70;93.60;;;;;;5076267;28;20076;-81
2022/09/13 12:38:05;;;;;;;3.63;0.95;;;22.70;92.90;;;;;;5075690;28;20040;-79
2022/09/13 12:40:55;;;;;;;1.85;0.45;;;22.70;93.90;;;;;;5058478;28;20036;-80
2022/09/13 12:43:48;;;;;;;4.28;0.90;;;22.70;94.50;;;;;;5038465;28;20099;-79
2022/09/13 12:46:34;;;;;;;2.65;0.70;;;22.70;93.10;;;;;;5057886;28;20547;-79
2022/09/13 12:49:26;;;;;;;3.53;0.70;;;22.50;93.10;;;;;;5074854;28;20049;-82
2022/09/13 12:52:05;;;;;;;2.65;0.80;;;22.50;94.80;;;;;;5058052;28;20130;-80
2022/09/13 12:54:52;;;;;;;2.78;0.55;;;22.50;94.70;;;;;;5075710;28;20055;-80
2022/09/13 12:57:27;;;;;;;4.72;0.82;;;22.40;94.00;;;;;;5075680;28;20070;-80
2022/09/13 13:00:16;;;;;;;4.80;0.77;;;22.40;94.50;;;;;;5058134;28;20044;-80
2022/09/13 13:03:20;;;;;;;4.78;0.60;;;22.40;95.10;;;;;;5057713;28;20079;-79
2022/09/13 13:05:50;;;;;;;3.15;0.70;;;22.40;94.70;;;;;;5066496;28;20055;-80
2022/09/13 13:08:19;;;;;;;7.78;1.58;;;22.30;94.50;;;;;;5075351;28;20142;-86
2022/09/13 13:11:06;;;;;;;5.88;1.38;;;22.30;94.10;;;;;;5057725;28;20044;-79
2022/09/13 13:13:43;;;;;;;3.40;0.95;;;22.40;94.10;;;;;;5075463;28;20040;-79
2022/09/13 13:16:33;;;;;;;3.80;0.70;;;22.40;94.70;;;;;;5056791;28;20161;-82
2022/09/13 13:19:01;;;;;;;4.75;0.93;;;22.20;95.30;;;;;;5057197;28;20366;-80
2022/09/13 13:21:33;;;;;;;5.22;1.00;;;22.00;95.60;;;;;;5057844;28;20040;-81
2022/09/13 13:24:14;;;;;;;3.85;0.70;;;21.90;96.20;;;;;;5041281;28;20120;-84